Time;durP1;ratioP1;P1;durP2;ratioP2;P2;SDS_P1;SDS_P2;PMS_P1;PMS_P2;Temp;Humidity;BMP_temperature;BMP_pressure;BME280_temperature;BME280_humidity;BME280_pressure;Samples;Min_cycle;Max_cycle;Signal;HPM_P1;HPM_P2
2022/04/28 00:01:46;;;;;;;2.35;0.80;;;0.40;70.80;;;;;;4992031;28;20438;-79
2022/04/28 00:04:12;;;;;;;0.82;0.60;;;0.30;71.60;;;;;;4992125;28;20022;-79
2022/04/28 00:06:38;;;;;;;0.80;0.75;;;0.20;71.80;;;;;;4992020;28;20031;-79
2022/04/28 00:09:05;;;;;;;0.73;0.70;;;0.20;71.70;;;;;;4992059;28;20030;-79
2022/04/28 00:11:31;;;;;;;1.65;0.70;;;0.20;71.40;;;;;;4992242;28;20106;-78
2022/04/28 00:13:58;;;;;;;4.40;0.80;;;0.20;71.80;;;;;;4991849;28;20031;-80
2022/04/28 00:16:25;;;;;;;0.70;0.70;;;0.10;71.80;;;;;;4992095;28;20033;-76
2022/04/28 00:18:50;;;;;;;0.60;0.60;;;0.10;72.20;;;;;;4994843;28;20049;-76
2022/04/28 00:21:16;;;;;;;0.70;0.70;;;0.00;72.70;;;;;;4995720;28;20026;-76
2022/04/28 00:23:42;;;;;;;0.70;0.60;;;0.10;72.50;;;;;;4995393;28;20030;-76
2022/04/28 00:26:07;;;;;;;0.70;0.70;;;0.00;72.30;;;;;;4995542;28;20030;-75
2022/04/28 00:28:33;;;;;;;4.88;0.80;;;0.10;72.50;;;;;;4995490;28;20031;-75
2022/04/28 00:30:59;;;;;;;1.27;0.63;;;0.00;72.80;;;;;;4995355;28;20097;-74
2022/04/28 00:33:24;;;;;;;0.70;0.60;;;-0.10;73.50;;;;;;4995688;28;20385;-74
2022/04/28 00:35:50;;;;;;;0.80;0.80;;;-0.20;74.20;;;;;;4995204;28;20026;-77
2022/04/28 00:38:16;;;;;;;0.60;0.60;;;-0.20;74.80;;;;;;4995149;28;20055;-76
2022/04/28 00:40:42;;;;;;;1.75;0.80;;;-0.30;74.90;;;;;;4995258;28;20030;-76
2022/04/28 00:43:20;;;;;;;1.23;0.80;;;-0.30;74.60;;;;;;4995373;28;20049;-76
2022/04/28 00:45:50;;;;;;;0.50;0.50;;;-0.20;74.40;;;;;;4995359;28;20433;-76
2022/04/28 00:51:05;;;;;;;1.85;0.75;;;-0.40;74.80;;;;;;4995039;28;20049;-76
2022/04/28 00:53:33;;;;;;;0.70;0.70;;;-0.40;74.80;;;;;;4995045;28;20022;-76
2022/04/28 00:55:59;;;;;;;0.80;0.80;;;-0.40;75.00;;;;;;4994710;28;20045;-76
2022/04/28 00:58:26;;;;;;;0.95;0.80;;;-0.40;75.20;;;;;;4994871;28;20110;-75
2022/04/28 01:00:53;;;;;;;0.70;0.70;;;-0.40;75.40;;;;;;4994828;28;20148;-76
2022/04/28 01:03:20;;;;;;;0.55;0.55;;;-0.40;75.90;;;;;;4994971;28;20054;-76
2022/04/28 01:05:46;;;;;;;1.10;0.80;;;-0.40;76.00;;;;;;4994989;28;20105;-76
2022/04/28 01:08:12;;;;;;;0.95;0.80;;;-0.40;76.00;;;;;;4995133;28;20030;-76
2022/04/28 01:10:38;;;;;;;0.73;0.60;;;-0.40;76.00;;;;;;4994631;28;20117;-77
2022/04/28 01:13:04;;;;;;;1.13;0.80;;;-0.40;75.90;;;;;;4994653;28;20097;-74
2022/04/28 01:15:30;;;;;;;0.80;0.80;;;-0.40;75.30;;;;;;4994176;28;20486;-73
2022/04/28 01:17:55;;;;;;;0.80;0.80;;;-0.30;74.60;;;;;;4993181;28;20029;-75
2022/04/28 01:20:21;;;;;;;0.75;0.75;;;-0.20;74.00;;;;;;4993346;28;20105;-76
2022/04/28 01:22:47;;;;;;;1.02;0.90;;;-0.20;73.70;;;;;;4994379;28;20474;-75
2022/04/28 01:25:13;;;;;;;0.65;0.60;;;-0.10;72.90;;;;;;4994564;28;20038;-75
2022/04/28 01:27:39;;;;;;;0.70;0.70;;;-0.10;73.70;;;;;;4994223;28;20026;-75
2022/04/28 01:30:15;;;;;;;0.70;0.70;;;-0.10;73.40;;;;;;4993474;28;20034;-75
2022/04/28 01:32:42;;;;;;;1.38;0.70;;;-0.10;73.80;;;;;;4994164;28;20022;-75
2022/04/28 01:35:08;;;;;;;1.60;0.95;;;-0.10;73.70;;;;;;4994553;28;20022;-75
2022/04/28 01:37:34;;;;;;;0.75;0.57;;;-0.10;73.50;;;;;;4994127;28;20050;-74
2022/04/28 01:39:59;;;;;;;0.77;0.70;;;-0.10;73.10;;;;;;4994155;28;20109;-76
2022/04/28 01:42:25;;;;;;;3.58;0.70;;;-0.10;72.90;;;;;;4994119;28;20030;-75
2022/04/28 01:44:51;;;;;;;27.70;1.40;;;-0.10;72.70;;;;;;4993986;28;20026;-75
2022/04/28 01:47:17;;;;;;;10.10;0.88;;;-0.10;72.80;;;;;;4994151;28;20026;-73
2022/04/28 01:49:43;;;;;;;3.55;0.82;;;-0.10;73.00;;;;;;4993677;28;20126;-73
2022/04/28 01:54:59;;;;;;;2.88;0.70;;;-0.10;74.40;;;;;;4994067;28;20089;-73
2022/04/28 01:57:30;;;;;;;2.22;0.70;;;-0.10;73.80;;;;;;4969177;28;20031;-73
2022/04/28 02:00:00;;;;;;;4.93;0.60;;;-0.10;74.00;;;;;;4954962;29;20114;-73
2022/04/28 02:02:26;;;;;;;3.67;0.90;;;-0.20;74.30;;;;;;4955590;29;20035;-76
2022/04/28 02:04:58;;;;;;;5.03;0.70;;;-0.30;74.40;;;;;;4955433;29;20111;-76
2022/04/28 02:07:24;;;;;;;4.00;0.80;;;-0.40;74.40;;;;;;4938000;29;20063;-76
2022/04/28 02:09:50;;;;;;;2.25;0.82;;;-0.50;74.60;;;;;;4955037;29;20035;-77
2022/04/28 02:12:16;;;;;;;2.40;0.82;;;-0.50;74.80;;;;;;4954860;29;20548;-77
2022/04/28 02:14:42;;;;;;;2.92;0.65;;;-0.60;74.80;;;;;;4954927;29;20038;-77
2022/04/28 02:17:08;;;;;;;11.05;0.70;;;-0.60;75.50;;;;;;4954937;29;20051;-77
2022/04/28 02:19:37;;;;;;;0.60;0.60;;;-0.60;74.80;;;;;;4954771;29;20023;-77
2022/04/28 02:22:03;;;;;;;3.22;0.88;;;-0.60;74.90;;;;;;4954742;29;20047;-73
2022/04/28 02:55:58;;;;;;;0.70;0.70;;;-1.00;78.10;;;;;;4945171;29;20388;-73
2022/04/28 02:58:24;;;;;;;0.60;0.60;;;-1.00;78.60;;;;;;4935651;29;20059;-74
2022/04/28 03:00:50;;;;;;;5.25;0.90;;;-1.00;78.90;;;;;;4935272;29;20048;-73
2022/04/28 03:37:01;;;;;;;3.20;0.80;;;-0.60;84.30;;;;;;5823403;23;20055;-68
2022/04/28 03:39:28;;;;;;;2.00;0.90;;;-0.60;84.20;;;;;;4973425;28;20030;-69
2022/04/28 03:41:53;;;;;;;0.70;0.70;;;-0.50;84.70;;;;;;4973099;28;20644;-69
2022/04/28 03:44:20;;;;;;;3.15;0.90;;;-0.50;84.80;;;;;;4972770;28;20023;-69
2022/04/28 03:46:45;;;;;;;1.75;0.90;;;-0.40;85.60;;;;;;4972974;28;20041;-69
2022/04/28 03:49:11;;;;;;;1.05;0.68;;;-0.40;85.40;;;;;;4972650;28;20019;-69
2022/04/28 03:51:37;;;;;;;2.53;1.13;;;-0.30;85.20;;;;;;4972941;28;20034;-69
2022/04/28 03:54:03;;;;;;;1.38;0.80;;;-0.20;85.30;;;;;;4975914;28;20027;-69
2022/04/28 03:56:31;;;;;;;24.17;1.55;;;0.10;85.00;;;;;;4976905;28;20089;-69
2022/04/28 03:59:01;;;;;;;8.80;1.23;;;0.40;84.90;;;;;;4976567;28;20022;-69
2022/04/28 04:01:27;;;;;;;3.33;1.10;;;0.80;83.20;;;;;;4976617;28;20033;-69
2022/04/28 04:03:53;;;;;;;3.17;1.00;;;1.10;82.30;;;;;;4976374;28;20398;-68
2022/04/28 04:06:19;;;;;;;4.50;0.80;;;1.30;81.40;;;;;;4976435;28;20044;-68
2022/04/28 04:08:45;;;;;;;15.18;1.45;;;1.40;80.30;;;;;;4976592;28;20026;-68
2022/04/28 04:11:12;;;;;;;12.77;1.40;;;1.50;78.80;;;;;;4976176;28;20035;-68
2022/04/28 04:13:38;;;;;;;16.45;1.50;;;1.60;78.30;;;;;;4976157;28;20065;-68
2022/04/28 04:16:04;;;;;;;26.98;1.58;;;1.70;77.60;;;;;;4976335;28;20074;-68
2022/04/28 04:18:30;;;;;;;23.75;1.55;;;1.80;77.20;;;;;;4976272;28;20023;-68
2022/04/28 04:20:56;;;;;;;24.27;2.17;;;1.90;77.40;;;;;;4976177;28;20425;-69
2022/04/28 04:23:22;;;;;;;15.13;1.65;;;2.10;77.00;;;;;;4975765;28;20030;-69
2022/04/28 04:25:48;;;;;;;20.17;1.45;;;2.20;76.30;;;;;;4976289;28;20029;-68
2022/04/28 04:28:14;;;;;;;13.05;1.30;;;2.40;75.80;;;;;;4975849;28;20037;-70
2022/04/28 04:33:24;;;;;;;11.15;1.15;;;2.50;75.70;;;;;;4975765;28;20026;-71
2022/04/28 04:35:50;;;;;;;12.07;1.25;;;2.60;75.10;;;;;;4975906;28;20031;-75
2022/04/28 04:38:15;;;;;;;21.75;1.20;;;2.60;76.20;;;;;;4975360;28;20434;-76
2022/04/28 04:40:41;;;;;;;10.05;0.90;;;2.50;75.90;;;;;;4975905;28;20089;-71
2022/04/28 04:43:13;;;;;;;8.45;0.95;;;2.30;75.80;;;;;;4975899;28;20050;-71
2022/04/28 04:45:42;;;;;;;8.50;1.02;;;2.30;76.20;;;;;;4975847;28;20433;-71
2022/04/28 04:48:12;;;;;;;20.48;1.40;;;2.50;82.80;;;;;;4975133;28;20033;-71
2022/04/28 04:50:38;;;;;;;18.55;2.33;;;2.60;78.10;;;;;;4982637;28;20085;-71
2022/04/28 04:53:05;;;;;;;17.08;1.30;;;2.50;76.60;;;;;;4991520;28;20029;-73
2022/04/28 04:55:36;;;;;;;39.55;2.70;;;2.40;75.90;;;;;;4994151;28;20022;-72
2022/04/28 04:58:03;;;;;;;36.75;2.53;;;2.40;76.10;;;;;;4993605;28;20022;-74
2022/04/28 05:00:28;;;;;;;20.88;2.20;;;2.30;76.30;;;;;;4991999;28;20133;-74
2022/04/28 05:02:54;;;;;;;34.85;2.25;;;2.40;76.50;;;;;;4993783;28;20444;-74
2022/04/28 05:05:20;;;;;;;15.68;1.83;;;2.40;76.30;;;;;;4992475;28;20109;-74
2022/04/28 05:07:46;;;;;;;23.02;1.50;;;2.50;77.40;;;;;;4993673;28;20121;-74
2022/04/28 05:10:11;;;;;;;13.95;1.67;;;2.50;76.50;;;;;;4993935;28;20030;-74
2022/04/28 05:12:37;;;;;;;164.88;9.85;;;2.50;76.30;;;;;;4994615;28;20565;-74
2022/04/28 05:15:03;;;;;;;19.98;1.42;;;2.50;79.80;;;;;;4994629;28;20503;-74
2022/04/28 05:17:29;;;;;;;25.50;2.78;;;2.60;77.10;;;;;;4994308;28;20516;-74
2022/04/28 05:19:57;;;;;;;24.02;1.80;;;2.60;77.20;;;;;;4994762;28;20049;-72
2022/04/28 05:22:24;;;;;;;65.35;3.15;;;2.70;76.40;;;;;;4994208;28;20037;-73
2022/04/28 05:24:49;;;;;;;19.67;1.38;;;2.80;76.20;;;;;;4994478;28;20061;-73
2022/04/28 05:27:15;;;;;;;71.82;4.93;;;2.90;76.80;;;;;;4994253;28;20046;-73
2022/04/28 05:29:41;;;;;;;43.40;2.63;;;3.00;75.80;;;;;;4994229;28;20037;-73
2022/04/28 05:32:07;;;;;;;27.63;2.28;;;3.00;76.10;;;;;;4994354;28;20027;-73
2022/04/28 05:34:33;;;;;;;19.92;1.63;;;3.10;76.80;;;;;;4994197;28;20069;-73
2022/04/28 05:36:59;;;;;;;20.33;1.88;;;3.10;76.30;;;;;;4980526;28;20061;-73
2022/04/28 05:39:26;;;;;;;32.45;1.95;;;3.20;76.40;;;;;;5013616;28;20109;-73
2022/04/28 05:41:52;;;;;;;50.60;3.85;;;3.30;76.60;;;;;;4995709;28;20030;-73
2022/04/28 05:47:03;;;;;;;14.77;0.90;;;3.50;77.40;;;;;;5013951;28;20461;-73
2022/04/28 05:49:30;;;;;;;3.83;0.98;;;3.50;78.40;;;;;;5012492;28;20112;-74
2022/04/28 05:51:56;;;;;;;8.52;0.70;;;3.80;87.30;;;;;;5013511;28;20026;-74
2022/04/28 05:54:22;;;;;;;5.70;0.85;;;4.10;88.70;;;;;;5013148;28;20026;-73
2022/04/28 05:56:47;;;;;;;3.40;0.82;;;4.20;80.40;;;;;;4995927;28;20052;-75
2022/04/28 05:59:13;;;;;;;1.67;0.82;;;4.30;79.40;;;;;;5003743;28;20036;-75
2022/04/28 06:01:39;;;;;;;10.95;0.88;;;4.30;78.60;;;;;;4994352;28;20030;-72
2022/04/28 06:04:06;;;;;;;2.42;0.50;;;4.30;78.40;;;;;;5012706;28;20045;-76
2022/04/28 06:06:32;;;;;;;2.55;0.57;;;4.30;77.90;;;;;;5012622;28;20225;-74
2022/04/28 06:08:58;;;;;;;4.10;0.70;;;4.30;77.80;;;;;;5012412;28;20029;-73
2022/04/28 06:11:24;;;;;;;10.05;1.98;;;4.40;77.90;;;;;;5012308;28;20037;-73
2022/04/28 06:13:50;;;;;;;21.83;1.73;;;4.50;77.70;;;;;;5012418;28;20034;-75
2022/04/28 06:16:15;;;;;;;13.75;0.75;;;4.70;78.60;;;;;;5012268;28;20112;-77
2022/04/28 06:18:41;;;;;;;2.95;0.60;;;4.80;78.50;;;;;;5015613;28;20470;-76
2022/04/28 06:21:07;;;;;;;2.20;0.60;;;4.70;77.50;;;;;;5012219;28;20476;-75
2022/04/28 06:23:33;;;;;;;13.95;1.10;;;4.70;77.90;;;;;;5012378;28;20033;-79
2022/04/28 06:26:00;;;;;;;1.52;0.55;;;4.70;79.50;;;;;;5012245;28;20477;-80
2022/04/28 06:28:27;;;;;;;4.50;0.60;;;4.80;80.20;;;;;;5009591;28;20022;-72
2022/04/28 06:30:52;;;;;;;7.50;0.93;;;4.80;78.60;;;;;;4993762;28;20150;-75
2022/04/28 06:33:21;;;;;;;5.15;0.95;;;4.80;78.90;;;;;;5010837;28;20544;-77
2022/04/28 06:35:47;;;;;;;10.93;1.08;;;6.40;99.90;;;;;;4995849;28;20022;-79
2022/04/28 06:38:13;;;;;;;7.63;0.70;;;7.30;93.20;;;;;;4997666;28;20045;-70
2022/04/28 06:40:38;;;;;;;2.00;0.60;;;7.00;87.20;;;;;;4992161;28;20032;-73
2022/04/28 06:43:04;;;;;;;4.05;0.43;;;6.60;82.90;;;;;;4992304;28;20109;-74
2022/04/28 06:45:30;;;;;;;3.42;0.88;;;6.40;82.70;;;;;;4992034;28;20030;-77
2022/04/28 06:47:56;;;;;;;9.57;0.93;;;6.10;82.80;;;;;;4991937;28;20018;-76
2022/04/28 06:50:22;;;;;;;0.98;0.40;;;6.00;83.40;;;;;;4972098;28;20529;-76
2022/04/28 06:52:47;;;;;;;3.45;0.70;;;5.90;83.40;;;;;;4983917;28;20033;-76
2022/04/28 06:55:13;;;;;;;5.07;0.70;;;5.80;83.40;;;;;;4991560;28;20034;-76
2022/04/28 06:57:39;;;;;;;39.08;2.20;;;5.70;83.50;;;;;;4985937;28;20027;-76
2022/04/28 07:00:07;;;;;;;1.48;0.52;;;5.70;83.90;;;;;;4974100;28;20031;-76
2022/04/28 07:02:33;;;;;;;5.20;0.60;;;5.80;83.50;;;;;;5011640;28;20034;-79
2022/04/28 07:04:59;;;;;;;3.85;0.60;;;5.80;83.30;;;;;;5011297;28;20018;-72
2022/04/28 07:07:25;;;;;;;9.82;0.65;;;5.80;83.30;;;;;;4992643;28;20186;-74
2022/04/28 07:09:51;;;;;;;4.55;0.50;;;5.80;85.30;;;;;;4993435;28;20393;-79
2022/04/28 07:12:16;;;;;;;4.47;0.68;;;6.40;96.00;;;;;;4993482;28;20050;-77
2022/04/28 07:14:43;;;;;;;7.88;0.50;;;7.00;99.90;;;;;;4993979;28;20026;-80
2022/04/28 07:17:10;;;;;;;1.17;0.70;;;8.10;99.90;;;;;;4990987;28;20723;-79
2022/04/28 07:19:36;;;;;;;0.57;0.35;;;8.20;85.90;;;;;;4992770;28;20022;-79
2022/04/28 07:22:05;;;;;;;2.60;0.40;;;7.50;80.60;;;;;;4992775;28;20031;-79
2022/04/28 07:24:35;;;;;;;3.83;0.60;;;7.00;80.80;;;;;;4992145;28;20034;-79
2022/04/28 07:27:02;;;;;;;3.88;0.47;;;6.60;81.50;;;;;;4991920;28;20030;-79
2022/04/28 07:29:28;;;;;;;3.15;0.50;;;6.40;82.30;;;;;;4992046;28;20116;-79
2022/04/28 07:31:54;;;;;;;7.13;0.80;;;6.30;82.10;;;;;;4992608;28;20074;-79
2022/04/28 07:34:19;;;;;;;1.48;0.40;;;6.30;82.50;;;;;;4992079;28;20022;-80
2022/04/28 07:36:45;;;;;;;0.68;0.50;;;6.30;82.40;;;;;;4996090;28;20102;-79
2022/04/28 07:39:11;;;;;;;0.70;0.50;;;6.20;82.30;;;;;;5031839;28;20465;-79
2022/04/28 07:41:36;;;;;;;2.70;0.60;;;6.20;82.10;;;;;;5031443;28;20029;-79
2022/04/28 07:44:02;;;;;;;2.60;0.50;;;6.20;82.80;;;;;;5031651;28;20038;-79
2022/04/28 07:46:28;;;;;;;2.97;0.60;;;6.20;82.60;;;;;;5031349;28;20470;-79
2022/04/28 07:48:54;;;;;;;5.93;0.70;;;6.20;82.60;;;;;;5031446;28;20040;-79
2022/04/28 07:51:19;;;;;;;38.67;2.70;;;6.20;82.50;;;;;;5031229;28;20033;-79
2022/04/28 07:53:45;;;;;;;14.43;1.05;;;6.30;82.00;;;;;;5031235;28;20538;-79
2022/04/28 07:56:11;;;;;;;37.50;2.20;;;6.40;82.20;;;;;;5031394;28;20022;-79
2022/04/28 07:58:41;;;;;;;17.73;1.20;;;6.40;81.50;;;;;;5031073;28;20079;-79
2022/04/28 08:01:07;;;;;;;2.10;0.47;;;6.50;81.20;;;;;;5031553;28;20037;-79
2022/04/28 08:03:33;;;;;;;12.05;0.60;;;6.60;80.50;;;;;;5031027;28;20376;-79
2022/04/28 08:05:59;;;;;;;70.15;3.05;;;6.50;80.20;;;;;;5031325;28;20033;-79
2022/04/28 08:08:25;;;;;;;4.05;0.40;;;6.60;80.10;;;;;;5030990;28;20021;-79
2022/04/28 08:10:51;;;;;;;0.85;0.40;;;6.50;79.40;;;;;;5031229;28;20480;-79
2022/04/28 08:13:17;;;;;;;2.70;0.50;;;6.60;78.20;;;;;;5031527;28;20029;-79
2022/04/28 08:15:43;;;;;;;2.50;0.40;;;6.50;77.50;;;;;;5031287;28;20498;-79
2022/04/28 08:18:08;;;;;;;13.77;0.90;;;6.50;76.80;;;;;;5031025;28;20024;-79
2022/04/28 08:20:35;;;;;;;10.80;1.08;;;6.60;76.70;;;;;;5030891;28;20496;-79
2022/04/28 08:23:01;;;;;;;4.35;0.93;;;6.60;76.70;;;;;;5031039;28;20032;-78
2022/04/28 08:25:27;;;;;;;2.13;0.50;;;6.70;76.50;;;;;;5031220;28;20025;-78
2022/04/28 08:27:53;;;;;;;0.50;0.40;;;6.70;75.40;;;;;;5031112;28;20013;-78
2022/04/28 08:30:18;;;;;;;1.10;0.43;;;6.70;74.50;;;;;;5030898;28;20034;-79
2022/04/28 08:32:44;;;;;;;2.92;0.60;;;6.70;74.10;;;;;;5031081;28;20072;-79
2022/04/28 08:35:09;;;;;;;1.20;0.40;;;6.80;73.90;;;;;;5030965;28;20021;-79
2022/04/28 08:37:39;;;;;;;5.88;0.60;;;6.90;73.70;;;;;;5030825;28;20049;-79
2022/04/28 08:40:05;;;;;;;10.23;0.70;;;7.00;72.40;;;;;;5033938;28;20025;-79
2022/04/28 08:42:36;;;;;;;0.88;0.50;;;7.10;72.00;;;;;;5034413;28;20022;-79
2022/04/28 08:45:02;;;;;;;2.90;0.40;;;7.00;70.70;;;;;;5034656;28;20112;-79
2022/04/28 08:47:28;;;;;;;3.22;0.50;;;7.00;69.60;;;;;;5034139;28;20117;-79
2022/04/28 08:49:54;;;;;;;1.15;0.30;;;6.80;69.60;;;;;;5034550;28;20120;-79
2022/04/28 08:52:20;;;;;;;6.03;0.70;;;6.80;70.30;;;;;;5034170;28;20496;-79
2022/04/28 08:54:46;;;;;;;3.70;0.40;;;6.90;70.50;;;;;;5034295;28;20033;-79
2022/04/28 08:57:13;;;;;;;0.38;0.38;;;7.00;70.10;;;;;;5036541;28;20021;-78
2022/04/28 08:59:40;;;;;;;2.22;0.40;;;7.10;70.10;;;;;;5037777;28;20021;-80
2022/04/28 09:02:16;;;;;;;0.30;0.30;;;7.10;69.10;;;;;;5046172;28;20027;-81
2022/04/28 09:04:42;;;;;;;0.80;0.43;;;7.10;68.50;;;;;;5023696;28;20026;-79
2022/04/28 09:07:08;;;;;;;11.23;0.60;;;7.10;68.40;;;;;;5036137;28;20043;-80
2022/04/28 09:09:34;;;;;;;8.05;0.40;;;7.10;67.70;;;;;;5033774;28;20041;-80
2022/04/28 09:12:02;;;;;;;2.10;0.40;;;7.10;67.60;;;;;;5034185;28;20491;-80
2022/04/28 09:14:28;;;;;;;0.65;0.40;;;7.10;67.80;;;;;;5033763;28;20076;-80
2022/04/28 09:16:56;;;;;;;9.65;0.50;;;7.10;67.50;;;;;;5034257;28;20148;-80
2022/04/28 09:19:27;;;;;;;3.35;0.47;;;7.20;67.50;;;;;;5033775;28;20017;-79
2022/04/28 09:22:00;;;;;;;1.00;0.30;;;7.20;66.80;;;;;;5034053;28;20067;-79
2022/04/28 09:24:27;;;;;;;1.63;0.43;;;7.10;66.10;;;;;;5033716;28;20386;-79
2022/04/28 09:26:54;;;;;;;1.50;0.40;;;7.10;65.70;;;;;;5033539;28;20029;-80
2022/04/28 09:29:21;;;;;;;1.08;0.60;;;7.10;65.10;;;;;;5033381;28;20018;-80
2022/04/28 09:31:50;;;;;;;0.57;0.30;;;7.10;61.80;;;;;;5033878;28;20026;-79
2022/04/28 09:34:20;;;;;;;0.40;0.40;;;7.10;61.30;;;;;;4999560;28;20026;-80
2022/04/28 09:36:47;;;;;;;0.35;0.35;;;7.00;59.80;;;;;;5033140;28;20025;-79
2022/04/28 09:44:50;;;;;;;0.30;0.30;;;7.10;60.10;;;;;;5033542;28;20500;-80
2022/04/28 09:47:18;;;;;;;0.85;0.30;;;7.00;59.40;;;;;;5033089;28;20510;-80
2022/04/28 09:49:52;;;;;;;2.28;0.30;;;7.10;59.10;;;;;;5032611;28;20575;-79
2022/04/28 09:52:24;;;;;;;1.95;0.38;;;7.20;60.00;;;;;;5032937;28;20204;-80
2022/04/28 09:54:54;;;;;;;0.85;0.75;;;7.30;60.00;;;;;;5033048;28;20045;-79
2022/04/28 09:57:22;;;;;;;0.63;0.30;;;7.20;58.60;;;;;;5032824;28;20052;-79
2022/04/28 09:59:50;;;;;;;6.03;0.63;;;7.20;58.40;;;;;;5032853;28;20033;-80
2022/04/28 10:02:19;;;;;;;0.30;0.30;;;7.10;57.70;;;;;;5032947;28;20499;-76
2022/04/28 10:04:47;;;;;;;3.30;0.30;;;7.20;59.40;;;;;;5032886;28;20032;-79
2022/04/28 10:07:15;;;;;;;1.65;0.30;;;7.40;57.90;;;;;;5015173;28;20029;-78
2022/04/28 10:09:43;;;;;;;0.75;0.30;;;7.40;57.50;;;;;;5041442;28;20025;-77
2022/04/28 10:12:09;;;;;;;0.63;0.47;;;7.40;57.00;;;;;;5026196;28;20030;-77
2022/04/28 10:14:41;;;;;;;2.17;0.40;;;7.40;57.10;;;;;;5006197;28;20505;-76
2022/04/28 10:17:46;;;;;;;1.45;0.40;;;7.40;57.60;;;;;;4995691;28;20026;-77
2022/04/28 10:20:20;;;;;;;3.38;0.60;;;7.50;57.10;;;;;;4978741;28;20085;-76
2022/04/28 10:22:49;;;;;;;3.22;0.47;;;7.60;57.20;;;;;;4993702;28;20030;-76
2022/04/28 10:32:22;;;;;;;0.30;0.30;;;7.80;56.20;;;;;;4993512;28;20026;-74
2022/04/28 10:33:48;;;;;;;0.35;0.30;;;8.40;61.40;;;;;;5013104;28;20040;-76
2022/04/28 10:36:20;;;;;;;1.23;0.45;;;8.20;55.60;;;;;;5012607;28;20025;-76
2022/04/28 10:39:07;;;;;;;0.30;0.30;;;8.00;54.10;;;;;;4994693;28;20709;-75
2022/04/28 10:41:33;;;;;;;0.45;0.30;;;7.90;54.60;;;;;;5002371;28;20085;-74
2022/04/28 10:44:00;;;;;;;10.05;0.52;;;7.80;54.40;;;;;;4995537;28;20430;-76
2022/04/28 10:46:30;;;;;;;0.30;0.30;;;7.80;54.10;;;;;;4992563;28;20030;-76
2022/04/28 10:49:00;;;;;;;0.60;0.38;;;7.70;54.30;;;;;;4992838;28;20448;-76
2022/04/28 10:51:30;;;;;;;0.40;0.40;;;7.70;54.30;;;;;;4992913;28;20039;-76
2022/04/28 10:54:02;;;;;;;9.65;0.73;;;7.60;53.50;;;;;;4992797;28;20106;-76
2022/04/28 10:56:50;;;;;;;1.75;0.30;;;7.40;53.00;;;;;;4992596;28;20084;-76
2022/04/28 10:59:37;;;;;;;1.25;0.30;;;7.40;53.20;;;;;;4982696;28;20058;-76
2022/04/28 11:02:15;;;;;;;0.43;0.25;;;7.30;53.90;;;;;;4992087;28;20032;-76
2022/04/28 11:04:52;;;;;;;0.73;0.30;;;7.20;54.10;;;;;;4992656;28;20085;-77
2022/04/28 11:07:24;;;;;;;0.50;0.38;;;7.30;54.60;;;;;;4992581;28;20022;-76
2022/04/28 11:10:13;;;;;;;0.30;0.30;;;7.40;54.50;;;;;;4992675;28;20073;-76
2022/04/28 11:12:41;;;;;;;0.30;0.30;;;7.40;54.00;;;;;;4992485;28;20038;-76
2022/04/28 11:15:10;;;;;;;0.47;0.30;;;7.30;54.00;;;;;;4992610;28;20026;-76
2022/04/28 11:17:38;;;;;;;0.30;0.30;;;7.20;54.00;;;;;;4992363;28;20024;-76
2022/04/28 11:20:12;;;;;;;0.82;0.47;;;7.20;54.30;;;;;;4992584;28;20453;-76
2022/04/28 11:22:49;;;;;;;0.63;0.30;;;7.10;53.70;;;;;;4992205;28;20520;-76
2022/04/28 11:25:17;;;;;;;3.15;0.40;;;7.10;53.20;;;;;;4992559;28;20470;-76
2022/04/28 11:27:48;;;;;;;1.02;0.30;;;7.10;52.80;;;;;;4992351;28;20050;-76
2022/04/28 11:30:24;;;;;;;0.20;0.20;;;7.00;53.50;;;;;;4992371;28;20022;-76
2022/04/28 11:32:57;;;;;;;1.33;0.40;;;6.90;53.10;;;;;;4992039;28;20018;-79
2022/04/28 11:35:33;;;;;;;0.52;0.30;;;7.20;55.80;;;;;;4992333;28;20026;-79
2022/04/28 11:37:59;;;;;;;0.65;0.43;;;7.10;52.70;;;;;;4992094;28;20625;-80
2022/04/28 11:40:24;;;;;;;2.70;0.50;;;7.10;52.70;;;;;;4992169;28;20054;-72
2022/04/28 11:43:01;;;;;;;6.18;0.57;;;7.20;52.70;;;;;;4992226;28;20027;-74
2022/04/28 11:45:31;;;;;;;0.93;0.43;;;7.90;60.10;;;;;;4991975;28;20069;-74
2022/04/28 11:48:01;;;;;;;4.80;0.50;;;8.00;53.20;;;;;;4974732;28;20053;-74
2022/04/28 11:50:32;;;;;;;0.68;0.40;;;8.00;53.00;;;;;;4991951;28;20068;-74
2022/04/28 11:53:12;;;;;;;6.70;0.50;;;8.00;53.20;;;;;;4992167;28;20022;-74
2022/04/28 11:55:40;;;;;;;3.47;0.40;;;8.00;51.50;;;;;;4991755;28;20485;-74
2022/04/28 11:58:07;;;;;;;0.85;0.50;;;8.00;51.70;;;;;;4992063;28;20058;-74
2022/04/28 12:00:41;;;;;;;0.68;0.40;;;7.90;51.30;;;;;;4991667;28;20031;-74
2022/04/28 12:03:07;;;;;;;1.63;0.47;;;7.90;50.00;;;;;;4991847;28;20031;-74
2022/04/28 12:05:34;;;;;;;1.30;0.60;;;8.00;50.50;;;;;;4991762;28;20034;-73
2022/04/28 12:08:01;;;;;;;2.30;0.40;;;7.80;49.90;;;;;;4991698;28;20034;-73
2022/04/28 12:16:06;;;;;;;0.65;0.40;;;7.60;51.40;;;;;;4989021;28;20034;-75
2022/04/28 12:21:24;;;;;;;3.70;1.23;;;7.50;50.40;;;;;;4996009;28;20037;-74
2022/04/28 12:23:57;;;;;;;14.00;0.93;;;7.50;50.90;;;;;;4995813;28;20543;-74
2022/04/28 12:26:24;;;;;;;1.23;0.30;;;7.40;52.10;;;;;;4995587;28;20030;-75
2022/04/28 12:28:50;;;;;;;4.85;0.43;;;7.20;55.50;;;;;;4995540;28;20022;-74
2022/04/28 12:31:30;;;;;;;3.72;0.45;;;6.90;59.80;;;;;;4995335;28;20030;-74
2022/04/28 12:33:57;;;;;;;3.50;0.40;;;6.60;64.40;;;;;;4995384;28;20019;-74
2022/04/28 12:36:24;;;;;;;3.05;0.57;;;6.30;68.00;;;;;;4985649;28;20804;-73
2022/04/28 12:38:53;;;;;;;4.38;0.47;;;6.00;70.30;;;;;;4975562;28;20081;-73
2022/04/28 12:41:27;;;;;;;0.95;0.47;;;5.80;71.00;;;;;;4975881;28;20014;-73
2022/04/28 12:44:00;;;;;;;2.13;0.52;;;5.70;71.90;;;;;;4975852;28;20035;-73
2022/04/28 12:46:34;;;;;;;29.85;1.40;;;5.80;72.30;;;;;;4975776;28;20014;-73
2022/04/28 12:49:05;;;;;;;0.85;0.43;;;5.80;72.70;;;;;;4975886;28;20027;-73
2022/04/28 12:51:50;;;;;;;3.40;0.50;;;5.80;72.40;;;;;;4975628;28;20035;-73
2022/04/28 12:54:20;;;;;;;0.45;0.45;;;5.80;71.70;;;;;;4975816;28;20529;-73
2022/04/28 12:57:14;;;;;;;6.10;0.60;;;5.80;72.30;;;;;;4975467;28;20030;-73
2022/04/28 12:59:42;;;;;;;5.57;0.50;;;5.70;72.10;;;;;;4971956;28;20110;-73
2022/04/28 13:02:08;;;;;;;0.40;0.40;;;5.70;72.40;;;;;;4975767;28;20035;-73
2022/04/28 13:04:38;;;;;;;0.60;0.40;;;5.80;71.50;;;;;;4975292;28;20042;-73
2022/04/28 13:07:05;;;;;;;0.40;0.40;;;5.80;69.70;;;;;;4975644;28;20018;-73
2022/04/28 13:09:31;;;;;;;0.80;0.40;;;5.60;68.90;;;;;;4975165;28;20049;-73
2022/04/28 13:11:57;;;;;;;2.72;0.40;;;5.70;68.10;;;;;;4975353;28;20546;-73
2022/04/28 13:14:23;;;;;;;1.65;0.30;;;5.80;68.10;;;;;;4975488;28;20027;-73
2022/04/28 13:16:52;;;;;;;0.40;0.35;;;5.80;67.20;;;;;;4975107;28;20093;-73
2022/04/28 13:19:19;;;;;;;0.68;0.50;;;6.00;66.40;;;;;;4974907;28;20027;-73
2022/04/28 13:21:45;;;;;;;0.90;0.40;;;6.00;64.20;;;;;;4974861;28;20037;-73
2022/04/28 13:24:11;;;;;;;2.53;0.50;;;6.10;63.60;;;;;;4974903;28;20039;-73
2022/04/28 13:26:37;;;;;;;0.30;0.30;;;6.20;61.70;;;;;;4985011;28;20033;-73
2022/04/28 13:29:03;;;;;;;0.40;0.40;;;6.20;60.40;;;;;;4994665;28;20077;-73
2022/04/28 13:31:29;;;;;;;5.40;0.40;;;6.20;59.40;;;;;;4994152;28;20035;-73
2022/04/28 13:33:56;;;;;;;8.50;0.82;;;6.30;58.90;;;;;;4994688;28;20049;-74
2022/04/28 13:36:22;;;;;;;3.70;0.47;;;6.40;57.90;;;;;;4994312;28;20116;-71
2022/04/28 13:38:48;;;;;;;0.80;0.40;;;6.40;55.80;;;;;;4994869;28;20038;-71
2022/04/28 13:41:15;;;;;;;1.20;0.50;;;6.40;55.80;;;;;;5013575;28;20413;-71
2022/04/28 13:43:41;;;;;;;3.92;0.52;;;6.30;56.30;;;;;;5013438;28;20342;-71
2022/04/28 13:46:12;;;;;;;1.98;0.40;;;6.20;56.30;;;;;;4995820;28;20440;-71
2022/04/28 13:48:38;;;;;;;0.88;0.40;;;6.30;56.60;;;;;;4995783;28;20026;-71
2022/04/28 13:51:06;;;;;;;1.00;0.40;;;6.30;56.80;;;;;;5013303;28;20516;-71
2022/04/28 13:53:33;;;;;;;0.40;0.40;;;6.40;56.60;;;;;;5013592;28;20192;-71
2022/04/28 13:56:00;;;;;;;0.65;0.50;;;6.40;57.00;;;;;;5013372;28;20377;-71
2022/04/28 13:58:27;;;;;;;29.23;1.55;;;6.40;57.00;;;;;;5013279;28;20100;-71
2022/04/28 14:00:53;;;;;;;3.63;0.52;;;6.40;57.10;;;;;;5013415;28;20022;-71
2022/04/28 14:03:25;;;;;;;8.68;1.00;;;6.50;57.50;;;;;;5012455;28;20084;-71
2022/04/28 14:05:52;;;;;;;3.92;1.00;;;6.50;59.50;;;;;;5012273;28;20389;-70
2022/04/28 14:08:19;;;;;;;3.50;0.50;;;6.50;60.90;;;;;;5013458;28;20022;-70
2022/04/28 14:10:45;;;;;;;0.30;0.30;;;6.60;61.70;;;;;;5013138;28;20034;-70
2022/04/28 14:13:11;;;;;;;2.03;0.40;;;6.50;61.30;;;;;;5013236;28;20037;-70
2022/04/28 14:15:38;;;;;;;0.30;0.30;;;6.50;61.70;;;;;;5012978;28;20061;-70
2022/04/28 14:18:04;;;;;;;0.95;0.55;;;6.50;60.40;;;;;;5012112;28;20058;-70
2022/04/28 14:20:30;;;;;;;2.47;0.43;;;6.40;59.10;;;;;;5011687;28;20030;-70
2022/04/28 14:22:56;;;;;;;0.75;0.40;;;6.30;58.10;;;;;;5013253;28;20072;-70
2022/04/28 14:25:22;;;;;;;5.45;0.60;;;6.30;57.80;;;;;;5012751;28;20112;-73
2022/04/28 14:27:47;;;;;;;0.80;0.50;;;6.30;57.80;;;;;;5012770;28;20037;-74
2022/04/28 14:30:13;;;;;;;1.00;0.40;;;6.50;65.80;;;;;;5003779;28;20084;-73
2022/04/28 14:32:39;;;;;;;2.20;0.50;;;6.50;57.40;;;;;;4996090;28;20022;-74